SILO RECORD LiDAR


Silo ID Silo Type Reliability Strength Temperature Humidity Depth Height Volume Weight Flag Internal IP Time VMS DATA 3D 좌표계
WJWJR05 1 58 % 2657 30.6 °C 79 % 7700 mm 19 mm 2.262 ㎥ 1.43 t 0 192.168.0.105 2026-07-24 13:25:47.000
WJWJR01 1 3372 % 1007 80 °C 100 % 7529 mm 5526 mm 6684 ㎥ 7427 t 15 2026-07-24 11:59:01.000
WJWJR01 1 2840 % 5371 80 °C 100 % 4045 mm 8418 mm 4939 ㎥ 8343 t 15 2026-07-24 11:58:54.000
WJWJR05 1 2832 % 3843 80 °C 100 % 7354 mm 3459 mm 2591 ㎥ 8609 t 15 2026-07-24 11:58:53.000
WJWJR01 1 1962 % 2352 80 °C 100 % 2026 mm 4153 mm 7424 ㎥ 9170 t 15 2026-07-24 11:58:46.000
WJWJR05 1 8835 % 2579 80 °C 100 % 1593 mm 7447 mm 2058 ㎥ 3757 t 15 2026-07-24 11:58:45.000
WJWJR01 1 9509 % 4110 80 °C 100 % 9865 mm 8447 mm 1905 ㎥ 5389 t 15 2026-07-24 11:58:38.000
WJWJR05 1 9021 % 8172 80 °C 100 % 3307 mm 1588 mm 1764 ㎥ 7788 t 15 2026-07-24 11:58:38.000
WJWJR01 1 2671 % 5206 80 °C 100 % 1367 mm 7535 mm 8184 ㎥ 4136 t 15 2026-07-24 11:58:32.000
WJWJR05 1 6485 % 2224 80 °C 100 % 2963 mm 9488 mm 4802 ㎥ 4839 t 15 2026-07-24 11:58:32.000
WJWJR01 1 2945 % 8525 80 °C 100 % 2376 mm 1969 mm 7661 ㎥ 8803 t 15 2026-07-24 11:58:25.000
WJWJR05 1 2636 % 6268 80 °C 100 % 2293 mm 1492 mm 1849 ㎥ 3584 t 15 2026-07-24 11:58:24.000
WJWJR01 1 9700 % 2936 80 °C 100 % 6465 mm 9500 mm 7790 ㎥ 3716 t 15 2026-07-24 11:58:17.000
WJWJR05 1 7534 % 6518 80 °C 100 % 6368 mm 4508 mm 6056 ㎥ 9017 t 15 2026-07-24 11:58:16.000
WJWJR05 1 5176 % 6186 80 °C 100 % 2061 mm 6167 mm 2289 ㎥ 5631 t 15 2026-07-24 11:58:11.000
WJWJR01 1 9195 % 5691 80 °C 100 % 6519 mm 4451 mm 2707 ㎥ 2466 t 15 2026-07-24 11:58:10.000
WJWJR05 1 5292 % 2218 80 °C 100 % 2475 mm 9222 mm 6267 ㎥ 9242 t 15 2026-07-24 11:58:03.000
WJWJR01 1 9658 % 5141 80 °C 100 % 9583 mm 4952 mm 7122 ㎥ 1716 t 15 2026-07-24 11:58:03.000
WJWJR01 1 2273 % 9413 80 °C 100 % 8581 mm 3173 mm 8571 ㎥ 1929 t 15 2026-07-24 11:57:56.000
WJWJR05 1 9611 % 5834 80 °C 100 % 7647 mm 4635 mm 8605 ㎥ 4636 t 15 2026-07-24 11:57:56.000

[첫 페이지] [23] [24] [25] [26] 27 [28] [29] [30] [31] [마지막 페이지]